Time;durP1;ratioP1;P1;durP2;ratioP2;P2;SDS_P1;SDS_P2;PMS_P1;PMS_P2;Temp;Humidity;BMP_temperature;BMP_pressure;BME280_temperature;BME280_humidity;BME280_pressure;Samples;Min_cycle;Max_cycle;Signal;HPM_P1;HPM_P2
2021/12/15 00:02:22;;;;;;;24.10;15.60;;;3.70;99.90;;;;;;5092422;28;20448;-70
2021/12/15 00:04:51;;;;;;;24.47;16.23;;;3.70;99.90;;;;;;5091490;28;20452;-71
2021/12/15 00:07:19;;;;;;;26.57;17.57;;;3.80;99.90;;;;;;5093002;28;20504;-70
2021/12/15 00:09:48;;;;;;;27.50;17.60;;;3.80;99.90;;;;;;5092321;28;20482;-71
2021/12/15 00:12:17;;;;;;;25.90;16.37;;;3.80;99.90;;;;;;5092811;28;20827;-71
2021/12/15 00:14:46;;;;;;;23.43;15.90;;;3.60;99.90;;;;;;5092278;28;20453;-72
2021/12/15 00:17:13;;;;;;;26.60;16.07;;;3.50;99.90;;;;;;5091727;28;20467;-72
2021/12/15 00:19:40;;;;;;;27.83;17.03;;;3.50;99.90;;;;;;5092677;28;20468;-71
2021/12/15 00:22:08;;;;;;;27.00;16.07;;;3.40;99.90;;;;;;5092742;28;20798;-72
2021/12/15 00:24:35;;;;;;;26.73;16.57;;;3.50;99.90;;;;;;5092095;28;20945;-71
2021/12/15 00:27:05;;;;;;;28.33;17.53;;;3.40;99.90;;;;;;5092513;28;20913;-71
2021/12/15 00:29:32;;;;;;;24.90;17.00;;;3.40;99.90;;;;;;5092246;28;20478;-72
2021/12/15 00:32:03;;;;;;;25.77;17.17;;;3.40;99.90;;;;;;5092257;28;20482;-72
2021/12/15 00:34:31;;;;;;;25.47;16.27;;;3.20;99.90;;;;;;5091203;28;20464;-72
2021/12/15 00:36:58;;;;;;;28.70;18.47;;;3.20;99.90;;;;;;5091655;28;20536;-71
2021/12/15 00:39:27;;;;;;;28.83;15.30;;;3.30;99.90;;;;;;5091419;28;20478;-73
2021/12/15 00:41:54;;;;;;;26.17;16.27;;;3.40;99.90;;;;;;5091780;28;20456;-72
2021/12/15 00:44:23;;;;;;;27.80;16.53;;;3.40;99.90;;;;;;5091357;28;20509;-70
2021/12/15 00:46:52;;;;;;;28.90;16.53;;;3.40;99.90;;;;;;5091503;28;20452;-71
2021/12/15 00:49:20;;;;;;;24.27;15.77;;;3.40;99.90;;;;;;5091359;28;20960;-70
2021/12/15 00:51:47;;;;;;;22.93;13.87;;;3.40;99.90;;;;;;5091548;28;20486;-72
2021/12/15 00:54:15;;;;;;;25.90;14.23;;;3.40;99.90;;;;;;5090940;28;20462;-72
2021/12/15 00:56:43;;;;;;;21.53;13.97;;;3.30;99.90;;;;;;5091351;28;20468;-71
2021/12/15 00:59:12;;;;;;;30.80;17.10;;;3.20;99.90;;;;;;5091147;28;21057;-71
2021/12/15 01:01:41;;;;;;;25.03;15.07;;;3.40;99.90;;;;;;5090888;28;20506;-71
2021/12/15 01:04:12;;;;;;;20.17;13.00;;;3.40;99.90;;;;;;5091138;28;20562;-72
2021/12/15 01:06:41;;;;;;;21.57;13.20;;;3.30;99.90;;;;;;5090535;28;20452;-70
2021/12/15 01:09:13;;;;;;;24.50;13.60;;;3.20;99.90;;;;;;5089588;28;20527;-70
2021/12/15 01:12:05;;;;;;;17.90;12.03;;;3.20;99.90;;;;;;5091711;28;20474;-70
2021/12/15 01:19:47;;;;;;;24.97;12.70;;;3.10;99.90;;;;;;5078336;28;20454;-71
2021/12/15 01:20:14;;;;;;;21.40;14.23;;;3.00;99.90;;;;;;5089846;28;20511;-70
2021/12/15 01:22:45;;;;;;;22.73;13.50;;;3.10;99.90;;;;;;5102795;28;20851;-70
2021/12/15 01:25:20;;;;;;;24.80;13.50;;;3.20;99.90;;;;;;5090989;28;20446;-70
2021/12/15 01:27:49;;;;;;;22.43;13.13;;;3.20;99.90;;;;;;5091234;28;20455;-70
2021/12/15 01:30:19;;;;;;;24.80;14.40;;;3.20;99.90;;;;;;5090406;28;20463;-71
2021/12/15 01:32:48;;;;;;;19.00;12.17;;;3.30;99.90;;;;;;5074845;28;20984;-72
2021/12/15 01:35:16;;;;;;;23.10;12.87;;;3.20;99.90;;;;;;5090544;28;20459;-70
2021/12/15 01:37:44;;;;;;;20.20;13.20;;;3.20;99.90;;;;;;5090389;28;20487;-70
2021/12/15 01:40:20;;;;;;;21.03;12.00;;;3.30;99.90;;;;;;5090298;28;20483;-71
2021/12/15 01:42:48;;;;;;;22.60;13.57;;;3.40;99.90;;;;;;5080969;28;20456;-71
2021/12/15 01:48:04;;;;;;;19.73;12.20;;;3.30;99.90;;;;;;5086964;28;20806;-70
2021/12/15 01:50:31;;;;;;;20.53;13.13;;;3.30;99.90;;;;;;5090430;28;20609;-71
2021/12/15 01:52:58;;;;;;;24.30;12.93;;;3.20;99.90;;;;;;5090319;28;20461;-72
2021/12/15 01:55:26;;;;;;;22.83;12.20;;;3.20;99.90;;;;;;5090126;28;20460;-72
2021/12/15 01:57:54;;;;;;;21.53;12.33;;;3.20;99.90;;;;;;5090306;28;20492;-71
2021/12/15 02:00:25;;;;;;;21.03;14.20;;;3.20;99.90;;;;;;5090077;28;20453;-72
2021/12/15 02:02:54;;;;;;;21.93;13.20;;;3.10;99.90;;;;;;5089620;28;20519;-72
2021/12/15 02:05:23;;;;;;;21.13;13.80;;;3.10;99.90;;;;;;5089220;28;20482;-71
2021/12/15 02:07:50;;;;;;;24.40;13.30;;;3.10;99.90;;;;;;5090350;28;20505;-70
2021/12/15 02:10:19;;;;;;;21.53;14.17;;;3.10;99.90;;;;;;5090028;28;20451;-72
2021/12/15 02:12:47;;;;;;;21.77;13.40;;;3.10;99.90;;;;;;5089818;28;20492;-72
2021/12/15 02:15:18;;;;;;;22.47;13.97;;;3.10;99.90;;;;;;5089870;28;20981;-72
2021/12/15 02:17:47;;;;;;;23.63;12.67;;;2.90;99.90;;;;;;5089901;28;20493;-72
2021/12/15 02:20:17;;;;;;;24.13;14.10;;;2.90;99.90;;;;;;5089754;28;20452;-72
2021/12/15 02:22:51;;;;;;;22.90;14.90;;;2.90;99.90;;;;;;5089899;28;20448;-68
2021/12/15 02:25:18;;;;;;;22.07;13.10;;;3.00;99.90;;;;;;5089296;28;20948;-72
2021/12/15 02:27:45;;;;;;;20.67;14.53;;;2.90;99.90;;;;;;5089898;28;20473;-71
2021/12/15 02:30:30;;;;;;;19.57;12.67;;;2.90;99.90;;;;;;5090131;28;20475;-68
2021/12/15 02:33:11;;;;;;;24.03;13.30;;;2.90;99.90;;;;;;5090359;28;20449;-70
2021/12/15 02:38:31;;;;;;;26.07;14.30;;;2.80;99.90;;;;;;5089937;28;21046;-69
2021/12/15 02:41:06;;;;;;;18.57;12.97;;;2.70;99.90;;;;;;5089535;28;20456;-70
2021/12/15 02:43:34;;;;;;;24.80;14.53;;;2.70;99.90;;;;;;5089012;28;20455;-71
2021/12/15 02:46:01;;;;;;;18.67;12.53;;;2.70;99.90;;;;;;5090561;28;20578;-71
2021/12/15 02:48:28;;;;;;;21.37;13.10;;;2.70;99.90;;;;;;5090248;28;20480;-71
2021/12/15 02:50:56;;;;;;;24.00;13.90;;;2.60;99.90;;;;;;5090303;28;20453;-70
2021/12/15 02:53:24;;;;;;;22.50;12.20;;;2.60;99.90;;;;;;5090109;28;20448;-70
2021/12/15 02:55:54;;;;;;;22.60;12.40;;;2.60;99.90;;;;;;5090262;28;20479;-72
2021/12/15 02:58:22;;;;;;;25.57;13.70;;;2.50;99.90;;;;;;5089179;28;20487;-71
2021/12/15 03:00:57;;;;;;;20.27;11.97;;;2.50;99.90;;;;;;5089495;28;21029;-70
2021/12/15 03:06:11;;;;;;;23.00;13.23;;;2.50;99.90;;;;;;5089577;28;20437;-72
2021/12/15 03:08:55;;;;;;;18.90;11.97;;;2.50;99.90;;;;;;5089800;28;20474;-70
2021/12/15 03:16:55;;;;;;;18.33;12.10;;;2.50;99.90;;;;;;5088868;28;20428;-71
2021/12/15 03:19:23;;;;;;;22.00;11.10;;;2.40;99.90;;;;;;5091148;28;20510;-69
2021/12/15 03:21:50;;;;;;;18.00;11.67;;;2.40;99.90;;;;;;5100793;28;20459;-71
2021/12/15 03:24:21;;;;;;;18.00;10.70;;;2.20;99.90;;;;;;5089851;28;20469;-71
2021/12/15 03:26:58;;;;;;;17.73;11.10;;;2.30;99.90;;;;;;5089955;28;20459;-71
2021/12/15 03:35:19;;;;;;;21.60;12.40;;;2.50;99.90;;;;;;5089246;28;20442;-71
2021/12/15 03:37:50;;;;;;;18.67;10.30;;;2.50;99.90;;;;;;5069414;28;20488;-70
2021/12/15 03:40:21;;;;;;;15.13;9.97;;;2.40;99.90;;;;;;5069548;28;20463;-71
2021/12/15 03:42:53;;;;;;;18.87;10.80;;;2.50;99.90;;;;;;5082581;28;20441;-72
2021/12/15 03:45:24;;;;;;;18.90;11.80;;;2.60;99.90;;;;;;5089089;28;20448;-71
2021/12/15 03:47:53;;;;;;;17.97;10.40;;;2.60;99.90;;;;;;5088967;28;20463;-70
2021/12/15 03:50:23;;;;;;;20.80;11.80;;;2.60;99.90;;;;;;5089313;28;20447;-70
2021/12/15 03:52:50;;;;;;;20.43;10.40;;;2.70;99.90;;;;;;5088849;28;20509;-71
2021/12/15 03:55:21;;;;;;;18.07;11.90;;;2.80;99.90;;;;;;5088818;28;20457;-70
2021/12/15 03:57:50;;;;;;;16.63;10.03;;;2.80;99.90;;;;;;5089124;28;20907;-70
2021/12/15 04:00:19;;;;;;;16.37;10.23;;;2.70;99.90;;;;;;5089191;28;20459;-70
2021/12/15 04:02:46;;;;;;;19.30;11.20;;;2.70;99.90;;;;;;5089028;28;20813;-71
2021/12/15 04:05:15;;;;;;;17.17;9.97;;;2.70;99.90;;;;;;5089021;28;20498;-70
2021/12/15 04:07:43;;;;;;;20.53;9.77;;;2.60;99.90;;;;;;5088728;28;20528;-70
2021/12/15 04:10:14;;;;;;;16.07;9.67;;;2.70;99.90;;;;;;5088580;28;21041;-70
2021/12/15 04:12:43;;;;;;;14.60;9.27;;;2.70;99.90;;;;;;5092366;28;20483;-70
2021/12/15 04:15:26;;;;;;;17.33;11.33;;;2.70;99.90;;;;;;5092701;28;20566;-70
2021/12/15 04:17:57;;;;;;;18.27;11.47;;;2.70;99.90;;;;;;5072600;28;20481;-71
2021/12/15 04:20:28;;;;;;;17.87;9.97;;;2.70;99.90;;;;;;5072611;28;20453;-70
2021/12/15 04:22:55;;;;;;;20.27;11.13;;;2.60;99.90;;;;;;5072508;28;20452;-70
2021/12/15 04:25:26;;;;;;;14.77;10.17;;;2.80;99.90;;;;;;5072740;28;20460;-70
2021/12/15 04:27:57;;;;;;;14.40;10.07;;;2.70;99.90;;;;;;5080314;28;20845;-70
2021/12/15 04:30:28;;;;;;;18.30;11.07;;;2.70;99.90;;;;;;5092146;28;20480;-69
2021/12/15 04:32:58;;;;;;;21.03;12.60;;;2.70;99.90;;;;;;5091712;28;20510;-71
2021/12/15 04:35:25;;;;;;;16.20;10.07;;;2.70;99.90;;;;;;5091780;28;20460;-69
2021/12/15 04:37:53;;;;;;;16.93;10.50;;;2.70;99.90;;;;;;5092441;28;20573;-71
2021/12/15 04:40:22;;;;;;;17.17;10.03;;;2.60;99.90;;;;;;5092084;28;20450;-70
2021/12/15 04:42:50;;;;;;;14.87;9.90;;;2.60;99.90;;;;;;5091484;28;20452;-70
2021/12/15 04:45:20;;;;;;;19.33;12.70;;;2.60;99.90;;;;;;5091568;28;20445;-69
2021/12/15 04:47:51;;;;;;;15.83;10.77;;;2.60;99.90;;;;;;5091583;28;20825;-68
2021/12/15 04:50:20;;;;;;;15.73;10.43;;;2.50;99.90;;;;;;5092148;28;20481;-68
2021/12/15 04:52:47;;;;;;;15.00;10.33;;;2.50;99.90;;;;;;5091607;28;20881;-70
2021/12/15 04:55:15;;;;;;;17.37;9.47;;;2.40;99.90;;;;;;5091891;28;20452;-70
2021/12/15 04:57:42;;;;;;;15.53;9.83;;;2.50;99.90;;;;;;5091345;28;20459;-70
2021/12/15 05:00:14;;;;;;;16.60;9.30;;;2.40;99.90;;;;;;5091087;28;20474;-71
2021/12/15 05:02:42;;;;;;;16.90;9.73;;;2.50;99.90;;;;;;5090513;28;21050;-71
2021/12/15 05:05:11;;;;;;;21.40;10.17;;;2.50;99.90;;;;;;5091344;28;20452;-71
2021/12/15 05:07:40;;;;;;;18.90;9.93;;;2.50;99.90;;;;;;5090574;28;20506;-70
2021/12/15 05:10:09;;;;;;;18.70;12.27;;;2.60;99.90;;;;;;5080776;28;21016;-71
2021/12/15 05:12:37;;;;;;;14.50;10.90;;;2.60;99.90;;;;;;5091701;28;20489;-70
2021/12/15 05:15:05;;;;;;;16.83;11.50;;;2.60;99.90;;;;;;5091607;28;20478;-71
2021/12/15 05:17:33;;;;;;;20.10;12.30;;;2.50;99.90;;;;;;5091640;28;20456;-71
2021/12/15 05:20:03;;;;;;;22.70;14.27;;;2.50;99.90;;;;;;5091630;28;20525;-71
2021/12/15 05:22:33;;;;;;;16.30;11.40;;;2.50;99.90;;;;;;5090121;28;20820;-69
2021/12/15 05:25:01;;;;;;;23.67;12.90;;;2.70;99.90;;;;;;5091232;28;20452;-71
2021/12/15 05:27:29;;;;;;;21.83;11.73;;;2.70;99.90;;;;;;5090513;28;20456;-70
2021/12/15 05:29:57;;;;;;;19.27;11.77;;;2.70;99.90;;;;;;5091242;28;20472;-70
2021/12/15 05:32:24;;;;;;;18.70;12.23;;;2.70;99.90;;;;;;5090156;28;20461;-69
2021/12/15 05:34:54;;;;;;;22.23;12.67;;;2.70;99.90;;;;;;5091380;28;20460;-71
2021/12/15 05:37:22;;;;;;;19.37;12.80;;;2.60;99.90;;;;;;5091495;28;20785;-70
2021/12/15 05:39:53;;;;;;;18.40;11.83;;;2.60;99.90;;;;;;5091127;28;20590;-69
2021/12/15 05:42:23;;;;;;;24.90;13.27;;;2.60;99.90;;;;;;5091079;28;20512;-69
2021/12/15 05:44:51;;;;;;;19.47;12.00;;;2.70;99.90;;;;;;5089986;28;20456;-70
2021/12/15 05:47:19;;;;;;;18.90;11.97;;;2.60;99.90;;;;;;5090903;28;21045;-71
2021/12/15 05:49:48;;;;;;;19.27;11.90;;;2.60;99.90;;;;;;5091091;28;20472;-71
2021/12/15 05:52:15;;;;;;;17.57;10.17;;;2.60;99.90;;;;;;5090876;28;20456;-72
2021/12/15 05:54:42;;;;;;;14.83;10.37;;;2.70;99.90;;;;;;5090951;28;20463;-72
2021/12/15 05:57:11;;;;;;;20.87;12.60;;;2.70;99.90;;;;;;5090981;28;20465;-72
2021/12/15 05:59:39;;;;;;;16.63;10.40;;;2.60;99.90;;;;;;5090865;28;20813;-72
2021/12/15 06:02:08;;;;;;;19.60;10.93;;;2.50;99.90;;;;;;5090882;28;20449;-72
2021/12/15 06:04:35;;;;;;;17.97;12.53;;;2.60;99.90;;;;;;5090679;28;20464;-72
2021/12/15 06:07:04;;;;;;;17.33;11.50;;;2.50;99.90;;;;;;5090733;28;20458;-71
2021/12/15 06:09:31;;;;;;;18.50;11.40;;;2.50;99.90;;;;;;5090498;28;20474;-72
2021/12/15 06:11:58;;;;;;;21.10;11.97;;;2.60;99.90;;;;;;5090555;28;20454;-72
2021/12/15 06:14:28;;;;;;;20.00;10.90;;;2.60;99.90;;;;;;5090638;28;20448;-71
2021/12/15 06:17:00;;;;;;;16.40;12.03;;;2.60;99.90;;;;;;5090134;28;20449;-71
2021/12/15 06:19:27;;;;;;;18.93;11.53;;;2.70;99.90;;;;;;5090277;28;20593;-74
2021/12/15 06:21:54;;;;;;;20.40;11.40;;;2.50;99.90;;;;;;5090494;28;20854;-70
2021/12/15 06:24:22;;;;;;;15.73;10.83;;;2.50;99.90;;;;;;5090400;28;20459;-71
2021/12/15 06:26:49;;;;;;;17.17;10.77;;;2.60;99.90;;;;;;5089133;28;20454;-72
2021/12/15 06:29:17;;;;;;;18.57;11.87;;;2.70;99.90;;;;;;5090334;28;20503;-71
2021/12/15 06:31:46;;;;;;;18.13;12.50;;;2.80;99.90;;;;;;5089930;28;20581;-71
2021/12/15 06:34:15;;;;;;;14.60;10.70;;;3.00;99.90;;;;;;5090078;28;20930;-72
2021/12/15 06:36:42;;;;;;;16.23;10.83;;;3.00;99.90;;;;;;5090191;28;20649;-71
2021/12/15 06:39:10;;;;;;;15.60;9.70;;;2.90;99.90;;;;;;5090028;28;20844;-71
2021/12/15 06:41:39;;;;;;;16.93;10.13;;;2.80;99.90;;;;;;5090283;28;20546;-71
2021/12/15 06:44:07;;;;;;;15.13;10.50;;;2.70;99.90;;;;;;5090289;28;20535;-70
2021/12/15 06:58:10;;;;;;;24.03;11.47;;;2.90;99.90;;;;;;5090005;28;20480;-72
2021/12/15 07:00:23;;;;;;;14.67;11.20;;;2.80;99.90;;;;;;5089703;28;20494;-72
2021/12/15 07:02:50;;;;;;;16.90;11.90;;;2.80;99.90;;;;;;5090051;28;20449;-72
2021/12/15 07:05:19;;;;;;;16.93;11.30;;;2.90;99.90;;;;;;5089866;28;20463;-71
2021/12/15 07:07:48;;;;;;;18.27;11.57;;;2.80;99.90;;;;;;5089850;28;20440;-71
2021/12/15 07:10:18;;;;;;;20.47;11.20;;;2.90;99.90;;;;;;5089904;28;20441;-72
2021/12/15 07:12:45;;;;;;;18.50;11.43;;;3.00;99.90;;;;;;5089329;28;20479;-71
2021/12/15 07:15:13;;;;;;;17.40;11.37;;;2.80;99.90;;;;;;5089928;28;20448;-71
2021/12/15 07:17:40;;;;;;;17.20;11.10;;;2.90;99.90;;;;;;5089695;28;20456;-71
2021/12/15 07:20:31;;;;;;;16.47;10.90;;;3.00;99.90;;;;;;5089409;28;20496;-70
2021/12/15 07:23:01;;;;;;;12.87;8.60;;;3.00;99.90;;;;;;5089810;28;20493;-71
2021/12/15 07:25:30;;;;;;;16.30;9.17;;;3.00;99.90;;;;;;5089820;28;20498;-72
2021/12/15 07:27:58;;;;;;;17.07;10.43;;;2.90;99.90;;;;;;5089516;28;20853;-74
2021/12/15 07:30:26;;;;;;;17.53;9.80;;;2.90;99.90;;;;;;5089543;28;20448;-72
2021/12/15 07:32:54;;;;;;;15.37;8.57;;;2.80;99.90;;;;;;5089648;28;20448;-74
2021/12/15 07:35:23;;;;;;;15.20;8.70;;;2.80;99.90;;;;;;5089422;28;20465;-74
2021/12/15 07:37:50;;;;;;;18.70;10.23;;;2.80;99.90;;;;;;5089666;28;20859;-73
2021/12/15 07:40:22;;;;;;;17.57;10.97;;;2.80;99.90;;;;;;5089459;28;20493;-73
2021/12/15 07:43:04;;;;;;;18.60;10.20;;;2.80;99.90;;;;;;5089498;28;20912;-73
2021/12/15 07:45:34;;;;;;;14.97;9.93;;;2.80;99.90;;;;;;5091659;28;20913;-74
2021/12/15 07:48:02;;;;;;;16.30;10.77;;;2.70;99.90;;;;;;5093517;28;20935;-72
2021/12/15 07:50:30;;;;;;;18.00;10.37;;;2.80;99.90;;;;;;5093412;28;20454;-72
2021/12/15 07:52:58;;;;;;;15.20;10.57;;;2.80;99.90;;;;;;5093372;28;20467;-73
2021/12/15 07:55:27;;;;;;;13.20;9.10;;;2.80;99.90;;;;;;5093043;28;20443;-70
2021/12/15 07:57:54;;;;;;;15.07;10.27;;;2.80;99.90;;;;;;5093120;28;20516;-70
2021/12/15 08:00:22;;;;;;;16.07;10.60;;;2.90;99.90;;;;;;5093053;28;20499;-73
2021/12/15 08:06:12;;;;;;;15.60;10.77;;;3.00;99.90;;;;;;5092914;28;20433;-73
2021/12/15 08:08:39;;;;;;;19.07;11.33;;;3.00;99.90;;;;;;5092592;28;20937;-73
2021/12/15 08:11:08;;;;;;;18.50;11.13;;;3.00;99.90;;;;;;5093027;28;20936;-72
2021/12/15 08:13:37;;;;;;;14.13;9.93;;;3.00;99.90;;;;;;5092465;28;20485;-72
2021/12/15 08:16:07;;;;;;;15.63;10.07;;;3.10;99.90;;;;;;5092828;28;20455;-75
2021/12/15 08:18:34;;;;;;;17.80;11.97;;;3.10;99.90;;;;;;5092568;28;21064;-71
2021/12/15 08:21:04;;;;;;;13.20;8.77;;;3.00;99.90;;;;;;5092672;28;20456;-73
2021/12/15 08:23:32;;;;;;;16.40;11.03;;;2.90;99.90;;;;;;5093002;28;20455;-74
2021/12/15 08:25:59;;;;;;;17.87;9.67;;;3.00;99.90;;;;;;5092920;28;20444;-72
2021/12/15 08:28:28;;;;;;;14.20;9.00;;;3.00;99.90;;;;;;5092708;28;20479;-72
2021/12/15 08:30:56;;;;;;;16.70;9.40;;;3.10;99.90;;;;;;5092277;28;20464;-73
2021/12/15 08:33:25;;;;;;;15.53;9.20;;;3.00;99.90;;;;;;5092273;28;20460;-73
2021/12/15 08:35:57;;;;;;;18.70;10.40;;;3.00;99.90;;;;;;5092921;28;20455;-71
2021/12/15 08:38:25;;;;;;;16.63;9.53;;;2.90;99.90;;;;;;5092448;28;21003;-73
2021/12/15 08:40:53;;;;;;;14.93;9.20;;;2.80;99.90;;;;;;5092454;28;20488;-71
2021/12/15 08:43:21;;;;;;;12.67;8.43;;;2.80;99.90;;;;;;5092520;28;20533;-75
2021/12/15 08:45:55;;;;;;;17.43;9.63;;;2.70;99.90;;;;;;5092228;28;20462;-71
2021/12/15 08:48:22;;;;;;;15.20;8.90;;;2.80;99.90;;;;;;5092147;28;20482;-73
2021/12/15 08:50:50;;;;;;;15.27;9.20;;;2.70;99.90;;;;;;5092227;28;20483;-70
2021/12/15 08:53:17;;;;;;;19.13;11.50;;;2.90;99.90;;;;;;5092347;28;20453;-73
2021/12/15 08:55:48;;;;;;;19.03;10.60;;;2.90;99.90;;;;;;5092222;28;20793;-73
2021/12/15 08:58:16;;;;;;;11.60;8.37;;;2.90;99.90;;;;;;5091974;28;20468;-73
2021/12/15 09:00:46;;;;;;;15.37;8.53;;;2.90;99.90;;;;;;5091764;28;20995;-71
2021/12/15 09:03:16;;;;;;;15.67;7.97;;;2.70;99.90;;;;;;5092035;28;20455;-71
2021/12/15 09:05:44;;;;;;;14.53;9.23;;;2.70;99.90;;;;;;5091961;28;20453;-73
2021/12/15 09:08:13;;;;;;;16.17;8.20;;;2.60;99.90;;;;;;5091673;28;20835;-72
2021/12/15 09:10:43;;;;;;;13.03;8.60;;;2.70;99.90;;;;;;5091257;28;20777;-71
2021/12/15 09:13:11;;;;;;;13.60;8.20;;;2.70;99.90;;;;;;5091477;28;20495;-69
2021/12/15 09:15:39;;;;;;;13.77;8.73;;;2.70;99.90;;;;;;5091895;28;20450;-71
2021/12/15 09:18:07;;;;;;;10.67;7.40;;;2.70;99.90;;;;;;5091683;28;20485;-71
2021/12/15 09:20:37;;;;;;;13.57;8.33;;;2.70;99.90;;;;;;5091478;28;20480;-71
2021/12/15 09:23:08;;;;;;;12.53;8.03;;;2.70;99.90;;;;;;5091423;28;20444;-71
2021/12/15 09:25:37;;;;;;;14.00;8.37;;;2.80;99.90;;;;;;5091435;28;20561;-70
2021/12/15 09:28:04;;;;;;;14.90;8.47;;;2.90;99.90;;;;;;5091667;28;20752;-71
2021/12/15 09:30:32;;;;;;;15.20;9.30;;;2.80;99.90;;;;;;5091525;28;20455;-70
2021/12/15 09:33:00;;;;;;;13.27;8.03;;;2.70;99.90;;;;;;5091451;28;20483;-71
2021/12/15 09:35:29;;;;;;;14.30;8.87;;;2.70;99.90;;;;;;5089915;28;20983;-71
2021/12/15 09:37:59;;;;;;;14.40;8.00;;;2.70;99.90;;;;;;5089881;28;20459;-70
2021/12/15 09:40:26;;;;;;;13.43;8.40;;;2.80;99.90;;;;;;5091413;28;20502;-71
2021/12/15 09:42:53;;;;;;;11.90;8.37;;;2.80;99.90;;;;;;5091246;28;20456;-71
2021/12/15 09:45:32;;;;;;;15.63;8.57;;;2.70;99.90;;;;;;5091343;28;20454;-70
2021/12/15 09:56:36;;;;;;;13.90;7.97;;;2.50;99.90;;;;;;5090856;28;20428;-71
2021/12/15 10:02:03;;;;;;;14.37;9.17;;;2.70;99.90;;;;;;5091185;28;20577;-70
2021/12/15 10:04:42;;;;;;;16.23;9.60;;;2.60;99.90;;;;;;5090854;28;20508;-71
2021/12/15 10:10:37;;;;;;;16.80;11.53;;;2.50;99.90;;;;;;5090566;28;20464;-71
2021/12/15 10:18:52;;;;;;;14.30;9.60;;;2.70;99.90;;;;;;5078367;28;20466;-70
2021/12/15 10:21:26;;;;;;;21.23;9.93;;;2.70;99.90;;;;;;5090276;28;20861;-69
2021/12/15 10:23:54;;;;;;;14.13;8.83;;;2.70;99.90;;;;;;5090468;28;20855;-72
2021/12/15 10:26:23;;;;;;;14.73;9.27;;;2.90;99.90;;;;;;5090452;28;20482;-72
2021/12/15 10:28:52;;;;;;;14.53;8.70;;;3.00;99.90;;;;;;5090491;28;20527;-71
2021/12/15 10:31:22;;;;;;;13.40;8.60;;;2.90;99.90;;;;;;5090497;28;20476;-71
2021/12/15 10:33:52;;;;;;;12.83;9.30;;;2.90;99.90;;;;;;5089933;28;20464;-72
2021/12/15 10:36:23;;;;;;;17.03;10.40;;;2.80;99.90;;;;;;5090255;28;20453;-71
2021/12/15 10:38:53;;;;;;;13.47;9.73;;;2.70;99.90;;;;;;5090302;28;20475;-71
2021/12/15 10:41:25;;;;;;;16.17;10.07;;;2.90;99.90;;;;;;5090199;28;20491;-72
2021/12/15 10:43:55;;;;;;;17.10;9.80;;;2.80;99.90;;;;;;5090360;28;20452;-71
2021/12/15 10:46:25;;;;;;;17.60;10.77;;;2.80;99.90;;;;;;5090149;28;20454;-71
2021/12/15 10:48:55;;;;;;;17.40;10.93;;;2.70;99.90;;;;;;5090135;28;20457;-71
2021/12/15 10:51:33;;;;;;;16.97;10.57;;;2.60;99.90;;;;;;5090044;28;20459;-71
2021/12/15 10:54:04;;;;;;;15.80;9.80;;;2.50;99.90;;;;;;5090178;28;20470;-72
2021/12/15 10:56:35;;;;;;;17.13;9.57;;;2.50;99.90;;;;;;5090287;28;20800;-70
2021/12/15 10:59:06;;;;;;;15.33;10.00;;;2.50;99.90;;;;;;5089700;28;20475;-70
2021/12/15 11:01:47;;;;;;;13.93;8.80;;;2.50;99.90;;;;;;5089664;28;20843;-71
2021/12/15 11:04:26;;;;;;;16.47;10.93;;;2.70;99.90;;;;;;5089591;28;20489;-71
2021/12/15 11:07:10;;;;;;;16.13;11.00;;;2.70;99.90;;;;;;5089905;28;20451;-71
2021/12/15 11:09:39;;;;;;;15.03;10.17;;;2.70;99.90;;;;;;5089568;28;20515;-70
2021/12/15 11:12:15;;;;;;;17.27;10.93;;;2.80;99.90;;;;;;5089625;28;20559;-72
2021/12/15 11:14:44;;;;;;;18.53;10.90;;;2.90;99.90;;;;;;5089878;28;20804;-72
2021/12/15 11:17:15;;;;;;;16.70;11.40;;;2.80;99.90;;;;;;5089763;28;20537;-70
2021/12/15 11:19:46;;;;;;;14.60;9.27;;;2.90;99.90;;;;;;5090201;28;21013;-73
2021/12/15 11:22:50;;;;;;;13.30;10.10;;;3.00;99.90;;;;;;5093466;28;20452;-71
2021/12/15 11:25:40;;;;;;;18.67;11.53;;;3.00;99.90;;;;;;5050358;28;20454;-71
2021/12/15 11:28:14;;;;;;;17.20;11.97;;;3.20;99.90;;;;;;5045718;28;20942;-71
2021/12/15 11:30:45;;;;;;;24.77;13.97;;;3.30;99.90;;;;;;5079357;28;20457;-70
2021/12/15 11:33:17;;;;;;;16.63;11.37;;;3.40;99.90;;;;;;5093688;28;20451;-71
2021/12/15 11:35:47;;;;;;;17.93;11.77;;;3.40;99.90;;;;;;5093822;28;20463;-71
2021/12/15 11:38:18;;;;;;;19.80;12.53;;;3.60;99.90;;;;;;5093222;28;20477;-71
2021/12/15 11:40:50;;;;;;;17.60;12.30;;;3.70;99.90;;;;;;5093160;28;20492;-71
2021/12/15 11:43:38;;;;;;;15.80;11.30;;;3.80;99.90;;;;;;5093487;28;20815;-71
2021/12/15 11:46:22;;;;;;;16.37;11.73;;;3.90;99.90;;;;;;5093505;28;20466;-70
2021/12/15 11:48:52;;;;;;;18.10;12.43;;;3.90;99.90;;;;;;5093285;28;20574;-71
2021/12/15 11:51:29;;;;;;;20.23;11.30;;;3.70;99.90;;;;;;5093194;28;20450;-71
2021/12/15 11:53:57;;;;;;;17.00;10.70;;;3.60;99.90;;;;;;5093280;28;20454;-70
2021/12/15 11:56:28;;;;;;;16.60;11.77;;;3.50;99.90;;;;;;5093127;28;20463;-69
2021/12/15 11:59:20;;;;;;;17.23;11.07;;;3.40;99.90;;;;;;5091147;28;20964;-72
2021/12/15 12:01:54;;;;;;;16.63;11.80;;;3.40;99.90;;;;;;5075312;28;20483;-70
2021/12/15 12:04:26;;;;;;;18.63;13.20;;;3.30;99.90;;;;;;5092336;28;20469;-71
2021/12/15 12:06:56;;;;;;;15.80;11.77;;;3.30;99.90;;;;;;5093251;28;20455;-71
2021/12/15 12:09:24;;;;;;;17.10;11.10;;;3.40;99.90;;;;;;5092584;28;20493;-70
2021/12/15 12:11:56;;;;;;;17.13;10.47;;;3.40;99.90;;;;;;5092147;28;21010;-69
2021/12/15 12:14:43;;;;;;;18.60;12.40;;;3.50;99.90;;;;;;5091335;28;20456;-71
2021/12/15 12:17:13;;;;;;;17.17;10.40;;;3.40;99.90;;;;;;5091599;28;20928;-71
2021/12/15 12:19:49;;;;;;;16.80;12.33;;;3.30;99.90;;;;;;5091202;28;20555;-71
2021/12/15 12:22:17;;;;;;;17.40;11.87;;;3.40;99.90;;;;;;5091445;28;20444;-70
2021/12/15 12:24:46;;;;;;;19.07;13.10;;;3.40;99.90;;;;;;5091528;28;20874;-70
2021/12/15 12:27:14;;;;;;;19.70;12.90;;;3.40;99.90;;;;;;5090987;28;20456;-71
2021/12/15 12:29:43;;;;;;;16.37;11.30;;;3.50;99.90;;;;;;5091072;28;21000;-71
2021/12/15 12:32:11;;;;;;;17.27;12.07;;;3.40;99.90;;;;;;5090911;28;20447;-70
2021/12/15 12:34:40;;;;;;;19.17;12.63;;;3.30;99.90;;;;;;5091084;28;20470;-69
2021/12/15 12:37:07;;;;;;;19.93;12.90;;;3.50;99.90;;;;;;5091135;28;20455;-71
2021/12/15 12:39:37;;;;;;;18.30;13.20;;;3.40;99.90;;;;;;5091056;28;20467;-69
2021/12/15 12:42:08;;;;;;;21.50;13.37;;;3.30;99.90;;;;;;5090834;28;20846;-70
2021/12/15 12:44:39;;;;;;;18.87;13.23;;;3.20;99.90;;;;;;5090934;28;20455;-70
2021/12/15 12:47:20;;;;;;;16.47;11.77;;;3.20;99.90;;;;;;5091107;28;20456;-70
2021/12/15 13:01:06;;;;;;;17.37;12.27;;;2.80;99.90;;;;;;5090762;28;20528;-71
2021/12/15 13:03:37;;;;;;;23.13;12.90;;;2.80;99.90;;;;;;5090448;28;20968;-72
2021/12/15 13:06:07;;;;;;;22.67;14.43;;;3.00;99.90;;;;;;5090789;28;20506;-71
2021/12/15 13:08:40;;;;;;;21.43;13.77;;;3.00;99.90;;;;;;5090867;28;21029;-72
2021/12/15 13:11:16;;;;;;;20.43;12.37;;;3.00;99.90;;;;;;5090703;28;20452;-71
2021/12/15 13:14:01;;;;;;;19.57;14.63;;;3.00;99.90;;;;;;5050816;28;1150570;-71
2021/12/15 13:16:33;;;;;;;21.80;13.87;;;3.20;99.90;;;;;;5091671;28;20250;-70
2021/12/15 13:19:12;;;;;;;18.90;12.93;;;3.20;99.90;;;;;;5091130;28;20501;-70
2021/12/15 13:22:05;;;;;;;22.13;13.90;;;3.10;99.90;;;;;;5091434;28;20492;-71
2021/12/15 13:30:29;;;;;;;20.00;14.27;;;2.90;99.90;;;;;;5091327;28;20530;-71
2021/12/15 13:33:04;;;;;;;18.17;13.20;;;2.90;99.90;;;;;;5090560;28;20512;-70
2021/12/15 13:35:40;;;;;;;20.57;14.03;;;2.90;99.90;;;;;;5091496;28;20544;-70
2021/12/15 13:38:07;;;;;;;18.93;11.90;;;3.00;99.90;;;;;;5091392;28;20442;-70
2021/12/15 13:41:03;;;;;;;20.23;13.43;;;2.90;99.90;;;;;;5091072;28;20535;-72
2021/12/15 13:43:45;;;;;;;20.80;12.70;;;2.90;99.90;;;;;;5090602;28;20455;-71
2021/12/15 13:46:41;;;;;;;15.07;9.73;;;2.90;99.90;;;;;;5091204;28;20470;-69
2021/12/15 13:49:19;;;;;;;19.37;12.30;;;3.00;99.90;;;;;;5090653;28;20503;-70
2021/12/15 13:52:25;;;;;;;18.27;12.23;;;3.10;99.90;;;;;;5090587;28;20539;-73
2021/12/15 13:58:18;;;;;;;24.97;13.47;;;3.20;99.90;;;;;;4949176;29;20978;-71
2021/12/15 14:00:55;;;;;;;22.37;13.00;;;3.30;99.90;;;;;;5048533;28;20520;-73
2021/12/15 14:03:29;;;;;;;17.67;12.90;;;3.30;99.90;;;;;;5070302;28;20855;-72
2021/12/15 14:06:00;;;;;;;18.47;12.17;;;3.30;99.90;;;;;;5070317;28;20462;-70
2021/12/15 14:08:37;;;;;;;21.27;12.57;;;3.40;99.90;;;;;;5069907;28;20473;-70
2021/12/15 14:11:19;;;;;;;17.03;12.77;;;3.50;99.90;;;;;;5069908;28;20555;-72
2021/12/15 14:14:03;;;;;;;17.40;11.20;;;3.50;99.90;;;;;;5069617;28;20909;-71
2021/12/15 14:16:48;;;;;;;14.40;10.60;;;3.50;99.90;;;;;;5070127;28;20453;-71